الصفحة الرئيسية
METAR-TAF:

METAR-TAF

مطار :

مطار أثينا الدولي

أثينا, اليونان

دائرة عرض: 37-56N, خط طول: 023-56E, ارتفاع: 94 متر

مراقبة الطقس الحالي

تاريخ ووقت الإصدار 30 دقيقة قبل الساعة 14:50UTC
ريح 2 عقدة من الشرق/الجنوب الشرقي
درجة الحرارة 14°درجة مئوية
الرطوبة 82%
ضغط 1018 hPa
الرؤية 10 كم أو أكثر
غيوم قليلة على ارتفاع 1200 قدم
غيوم مفككة على ارتفاع 2000 قدم

METAR: LGAV 141450Z 11002KT 9999 FEW012 BKN020 14/11 Q1018 NOSIG

زمن: 17:20 (15:20 UTC)

توقعات

تاريخ ووقت الإصدار 4ساعات و 20 دقيقة قبل الساعة 11:00UTC
التوقعات صالحة من14 الساعة 12 UTC إلى 15 الساعة 12 UTC
ريح 12 عقدة من الجنوب
الرؤية 10 كم أو أكثر
غيوم متفرقة على ارتفاع 1200 قدم
غيوم مفككة على ارتفاع 1800 قدم
غيوم مفككة على ارتفاع 7000 قدم
مؤقت
من 14 الساعة 16 UTC إلى 15 الساعة 12 UTC
ريح 12 عقدة من الجنوب تتزايد حتى 22 عقدة
نظرية الاحتمالات 30% :
مؤقت
من 14 الساعة 20 UTC إلى 15 الساعة 12 UTC
الرؤية: 5000 متر
مطر

TAF: LGAV 141100Z 1412/1512 17012KT 9999 SCT012 BKN018 BKN070 TEMPO 1416/1512 17012G22KT PROB30 TEMPO 1420/1512 5000 RA

أرصاد الطقس والتوقعات من أكثر من 4000 مطار (تقارير الطقس للمطار METAR والتنبؤ بالطقس بالمطارTAF).

المحطات المتاحة هي النقط الصفراء والحمراء على الخريطة.

حرك المؤشر فوق النقطة لمعرفة اسم المحطة.

ثم انقر لمعرفة أرصاد وتوقعات الطقس.

لتغيير الخارطة: اضغط على الأزرار الخضراء مع رمز الصليب الأسود للتكبير. على الزر الأخضر مع شرطة للتصغير، أو على الأسهم الخضراء للخرائط المجاورة.


METAR-TAF: